sensor_id;sensor_type;location;lat;lon;timestamp;temperature;humidity
4435;DHT22;46552;52.150;8.428;2024-01-25T00:01:07;9.10;99.90
4435;DHT22;46552;52.150;8.428;2024-01-25T00:03:35;9.10;99.90
4435;DHT22;46552;52.150;8.428;2024-01-25T00:06:05;9.20;99.90
4435;DHT22;46552;52.150;8.428;2024-01-25T00:08:33;9.10;99.90
4435;DHT22;46552;52.150;8.428;2024-01-25T00:11:01;9.10;99.90
4435;DHT22;46552;52.150;8.428;2024-01-25T00:13:28;9.10;99.90
4435;DHT22;46552;52.150;8.428;2024-01-25T00:15:55;9.10;99.90
4435;DHT22;46552;52.150;8.428;2024-01-25T00:18:23;9.10;99.90
4435;DHT22;46552;52.150;8.428;2024-01-25T00:20:51;9.10;99.90
4435;DHT22;46552;52.150;8.428;2024-01-25T00:23:18;9.10;99.90
4435;DHT22;46552;52.150;8.428;2024-01-25T00:25:46;9.10;99.90
4435;DHT22;46552;52.150;8.428;2024-01-25T00:28:13;9.10;99.90
4435;DHT22;46552;52.150;8.428;2024-01-25T00:30:40;9.10;99.90
4435;DHT22;46552;52.150;8.428;2024-01-25T00:33:07;9.10;99.90
4435;DHT22;46552;52.150;8.428;2024-01-25T00:35:35;9.10;99.90
4435;DHT22;46552;52.150;8.428;2024-01-25T00:38:05;9.10;99.90
4435;DHT22;46552;52.150;8.428;2024-01-25T00:40:33;9.10;99.90
4435;DHT22;46552;52.150;8.428;2024-01-25T00:43:00;9.10;99.90
4435;DHT22;46552;52.150;8.428;2024-01-25T00:45:28;9.00;99.90
4435;DHT22;46552;52.150;8.428;2024-01-25T00:47:55;9.10;99.90
4435;DHT22;46552;52.150;8.428;2024-01-25T00:50:24;9.10;99.90
4435;DHT22;46552;52.150;8.428;2024-01-25T00:52:52;9.10;99.90
4435;DHT22;46552;52.150;8.428;2024-01-25T00:55:23;9.10;99.90
4435;DHT22;46552;52.150;8.428;2024-01-25T00:57:51;9.00;99.90
4435;DHT22;46552;52.150;8.428;2024-01-25T01:00:19;9.00;99.90
4435;DHT22;46552;52.150;8.428;2024-01-25T01:02:47;9.00;99.90
4435;DHT22;46552;52.150;8.428;2024-01-25T01:05:15;9.00;99.90
4435;DHT22;46552;52.150;8.428;2024-01-25T01:07:44;9.00;99.90
4435;DHT22;46552;52.150;8.428;2024-01-25T01:10:11;9.00;99.90
4435;DHT22;46552;52.150;8.428;2024-01-25T01:12:41;9.00;99.90
4435;DHT22;46552;52.150;8.428;2024-01-25T01:15:09;9.00;99.90
4435;DHT22;46552;52.150;8.428;2024-01-25T01:17:36;9.00;99.90
4435;DHT22;46552;52.150;8.428;2024-01-25T01:20:05;8.90;99.90
4435;DHT22;46552;52.150;8.428;2024-01-25T01:22:33;8.90;99.90
4435;DHT22;46552;52.150;8.428;2024-01-25T01:25:02;8.90;99.90
4435;DHT22;46552;52.150;8.428;2024-01-25T01:27:29;8.90;99.90
4435;DHT22;46552;52.150;8.428;2024-01-25T01:30:02;8.90;99.90
4435;DHT22;46552;52.150;8.428;2024-01-25T01:32:29;8.90;99.90
4435;DHT22;46552;52.150;8.428;2024-01-25T01:34:57;8.90;99.90
4435;DHT22;46552;52.150;8.428;2024-01-25T01:37:24;8.90;99.90
4435;DHT22;46552;52.150;8.428;2024-01-25T01:39:52;8.80;99.90
4435;DHT22;46552;52.150;8.428;2024-01-25T01:42:21;8.90;99.90
4435;DHT22;46552;52.150;8.428;2024-01-25T01:44:48;8.80;99.90
4435;DHT22;46552;52.150;8.428;2024-01-25T01:47:18;8.80;99.90
4435;DHT22;46552;52.150;8.428;2024-01-25T01:49:45;8.80;99.90
4435;DHT22;46552;52.150;8.428;2024-01-25T01:52:14;8.80;99.90
4435;DHT22;46552;52.150;8.428;2024-01-25T01:54:43;8.80;99.90
4435;DHT22;46552;52.150;8.428;2024-01-25T01:57:10;8.70;99.90
4435;DHT22;46552;52.150;8.428;2024-01-25T01:59:39;8.70;99.90
4435;DHT22;46552;52.150;8.428;2024-01-25T02:02:07;8.70;99.90
4435;DHT22;46552;52.150;8.428;2024-01-25T02:04:36;8.70;99.90
4435;DHT22;46552;52.150;8.428;2024-01-25T02:07:03;8.70;99.90
4435;DHT22;46552;52.150;8.428;2024-01-25T02:09:31;8.70;99.90
4435;DHT22;46552;52.150;8.428;2024-01-25T02:12:00;8.70;99.90
4435;DHT22;46552;52.150;8.428;2024-01-25T02:14:27;8.70;99.90
4435;DHT22;46552;52.150;8.428;2024-01-25T02:16:55;8.60;99.90
4435;DHT22;46552;52.150;8.428;2024-01-25T02:19:23;8.60;99.90
4435;DHT22;46552;52.150;8.428;2024-01-25T02:21:53;8.60;99.90
4435;DHT22;46552;52.150;8.428;2024-01-25T02:24:22;8.60;99.90
4435;DHT22;46552;52.150;8.428;2024-01-25T02:26:50;8.60;99.90
4435;DHT22;46552;52.150;8.428;2024-01-25T02:29:18;8.60;99.90
4435;DHT22;46552;52.150;8.428;2024-01-25T02:31:46;8.60;99.90
4435;DHT22;46552;52.150;8.428;2024-01-25T02:34:13;8.60;99.90
4435;DHT22;46552;52.150;8.428;2024-01-25T02:36:40;8.60;99.90
4435;DHT22;46552;52.150;8.428;2024-01-25T02:39:07;8.60;99.90
4435;DHT22;46552;52.150;8.428;2024-01-25T02:41:36;8.60;99.90
4435;DHT22;46552;52.150;8.428;2024-01-25T02:44:04;8.60;99.90
4435;DHT22;46552;52.150;8.428;2024-01-25T02:46:31;8.60;99.90
4435;DHT22;46552;52.150;8.428;2024-01-25T02:48:58;8.60;99.90
4435;DHT22;46552;52.150;8.428;2024-01-25T02:51:26;8.60;99.90
4435;DHT22;46552;52.150;8.428;2024-01-25T02:53:54;8.50;99.90
4435;DHT22;46552;52.150;8.428;2024-01-25T02:56:21;8.50;99.90
4435;DHT22;46552;52.150;8.428;2024-01-25T02:58:50;8.60;99.90
4435;DHT22;46552;52.150;8.428;2024-01-25T03:01:17;8.60;99.90
4435;DHT22;46552;52.150;8.428;2024-01-25T03:03:44;8.60;99.90
4435;DHT22;46552;52.150;8.428;2024-01-25T03:06:12;8.60;99.90
4435;DHT22;46552;52.150;8.428;2024-01-25T03:08:39;8.60;99.90
4435;DHT22;46552;52.150;8.428;2024-01-25T03:11:06;8.60;99.90
4435;DHT22;46552;52.150;8.428;2024-01-25T03:13:33;8.60;99.90
4435;DHT22;46552;52.150;8.428;2024-01-25T03:16:02;8.60;99.90
4435;DHT22;46552;52.150;8.428;2024-01-25T03:18:30;8.60;99.90
4435;DHT22;46552;52.150;8.428;2024-01-25T03:20:57;8.70;99.90
4435;DHT22;46552;52.150;8.428;2024-01-25T03:23:24;8.70;99.90
4435;DHT22;46552;52.150;8.428;2024-01-25T03:25:51;8.60;99.90
4435;DHT22;46552;52.150;8.428;2024-01-25T03:28:18;8.60;99.90
4435;DHT22;46552;52.150;8.428;2024-01-25T03:30:45;8.60;99.90
4435;DHT22;46552;52.150;8.428;2024-01-25T03:33:15;8.60;99.90
4435;DHT22;46552;52.150;8.428;2024-01-25T03:35:43;8.60;99.90
4435;DHT22;46552;52.150;8.428;2024-01-25T03:38:10;8.60;99.90
4435;DHT22;46552;52.150;8.428;2024-01-25T03:40:39;8.60;99.90
4435;DHT22;46552;52.150;8.428;2024-01-25T03:43:06;8.60;99.90
4435;DHT22;46552;52.150;8.428;2024-01-25T03:45:34;8.60;99.90
4435;DHT22;46552;52.150;8.428;2024-01-25T03:48:01;8.50;99.90
4435;DHT22;46552;52.150;8.428;2024-01-25T03:50:31;8.50;99.90
4435;DHT22;46552;52.150;8.428;2024-01-25T03:52:58;8.50;99.90
4435;DHT22;46552;52.150;8.428;2024-01-25T03:55:25;8.40;99.90
4435;DHT22;46552;52.150;8.428;2024-01-25T03:57:53;8.40;99.90
4435;DHT22;46552;52.150;8.428;2024-01-25T04:00:20;8.40;99.90
4435;DHT22;46552;52.150;8.428;2024-01-25T04:02:48;8.40;99.90
4435;DHT22;46552;52.150;8.428;2024-01-25T04:05:15;8.40;99.90
4435;DHT22;46552;52.150;8.428;2024-01-25T04:07:44;8.40;99.90
4435;DHT22;46552;52.150;8.428;2024-01-25T04:10:12;8.40;99.90
4435;DHT22;46552;52.150;8.428;2024-01-25T04:12:39;8.40;99.90
4435;DHT22;46552;52.150;8.428;2024-01-25T04:15:07;8.40;99.90
4435;DHT22;46552;52.150;8.428;2024-01-25T04:17:35;8.40;99.90
4435;DHT22;46552;52.150;8.428;2024-01-25T04:20:03;8.40;99.90
4435;DHT22;46552;52.150;8.428;2024-01-25T04:22:30;8.30;99.90
4435;DHT22;46552;52.150;8.428;2024-01-25T04:25:01;8.30;99.90
4435;DHT22;46552;52.150;8.428;2024-01-25T04:27:29;8.30;99.90
4435;DHT22;46552;52.150;8.428;2024-01-25T04:29:57;8.30;99.90
4435;DHT22;46552;52.150;8.428;2024-01-25T04:32:24;8.20;99.90
4435;DHT22;46552;52.150;8.428;2024-01-25T04:34:51;8.20;99.90
4435;DHT22;46552;52.150;8.428;2024-01-25T04:37:18;8.10;99.90
4435;DHT22;46552;52.150;8.428;2024-01-25T04:39:45;8.10;99.90
4435;DHT22;46552;52.150;8.428;2024-01-25T04:42:14;8.10;99.90
4435;DHT22;46552;52.150;8.428;2024-01-25T04:44:41;8.10;99.90
4435;DHT22;46552;52.150;8.428;2024-01-25T04:47:10;8.10;99.90
4435;DHT22;46552;52.150;8.428;2024-01-25T04:49:37;8.10;99.90
4435;DHT22;46552;52.150;8.428;2024-01-25T04:52:05;8.10;99.90
4435;DHT22;46552;52.150;8.428;2024-01-25T04:54:32;8.10;99.90
4435;DHT22;46552;52.150;8.428;2024-01-25T04:57:00;8.10;99.90
4435;DHT22;46552;52.150;8.428;2024-01-25T04:59:30;8.00;99.90
4435;DHT22;46552;52.150;8.428;2024-01-25T05:01:58;8.00;99.90
4435;DHT22;46552;52.150;8.428;2024-01-25T05:04:26;8.00;99.90
4435;DHT22;46552;52.150;8.428;2024-01-25T05:06:53;8.00;99.90
4435;DHT22;46552;52.150;8.428;2024-01-25T05:09:21;8.00;99.90
4435;DHT22;46552;52.150;8.428;2024-01-25T05:11:48;8.00;99.90
4435;DHT22;46552;52.150;8.428;2024-01-25T05:14:16;8.00;99.90
4435;DHT22;46552;52.150;8.428;2024-01-25T05:16:44;8.00;99.90
4435;DHT22;46552;52.150;8.428;2024-01-25T05:19:13;8.00;99.90
4435;DHT22;46552;52.150;8.428;2024-01-25T05:21:40;8.00;99.90
4435;DHT22;46552;52.150;8.428;2024-01-25T05:24:07;8.00;99.90
4435;DHT22;46552;52.150;8.428;2024-01-25T05:26:36;8.00;99.90
4435;DHT22;46552;52.150;8.428;2024-01-25T05:29:04;8.00;99.90
4435;DHT22;46552;52.150;8.428;2024-01-25T05:31:31;8.00;99.90
4435;DHT22;46552;52.150;8.428;2024-01-25T05:34:00;8.00;99.90
4435;DHT22;46552;52.150;8.428;2024-01-25T05:36:28;8.00;99.90
4435;DHT22;46552;52.150;8.428;2024-01-25T05:38:55;7.90;99.90
4435;DHT22;46552;52.150;8.428;2024-01-25T05:41:22;7.90;99.90
4435;DHT22;46552;52.150;8.428;2024-01-25T05:43:50;7.90;99.90
4435;DHT22;46552;52.150;8.428;2024-01-25T05:46:17;7.80;99.90
4435;DHT22;46552;52.150;8.428;2024-01-25T05:48:44;7.80;99.90
4435;DHT22;46552;52.150;8.428;2024-01-25T05:51:13;7.80;99.90
4435;DHT22;46552;52.150;8.428;2024-01-25T05:53:40;7.80;99.90
4435;DHT22;46552;52.150;8.428;2024-01-25T05:56:08;7.80;99.90
4435;DHT22;46552;52.150;8.428;2024-01-25T05:58:35;7.70;99.90
4435;DHT22;46552;52.150;8.428;2024-01-25T06:01:03;7.70;99.90
4435;DHT22;46552;52.150;8.428;2024-01-25T06:03:30;7.70;99.90
4435;DHT22;46552;52.150;8.428;2024-01-25T06:05:57;7.70;99.90
4435;DHT22;46552;52.150;8.428;2024-01-25T06:08:26;7.60;99.90
4435;DHT22;46552;52.150;8.428;2024-01-25T06:10:54;7.60;99.90
4435;DHT22;46552;52.150;8.428;2024-01-25T06:13:21;7.60;99.90
4435;DHT22;46552;52.150;8.428;2024-01-25T06:15:48;7.60;99.90
4435;DHT22;46552;52.150;8.428;2024-01-25T06:18:15;7.60;99.90
4435;DHT22;46552;52.150;8.428;2024-01-25T06:20:42;7.60;99.90
4435;DHT22;46552;52.150;8.428;2024-01-25T06:23:10;7.50;99.90
4435;DHT22;46552;52.150;8.428;2024-01-25T06:25:38;7.50;99.90
4435;DHT22;46552;52.150;8.428;2024-01-25T06:28:06;7.50;99.90
4435;DHT22;46552;52.150;8.428;2024-01-25T06:30:33;7.50;99.90
4435;DHT22;46552;52.150;8.428;2024-01-25T06:33:00;7.50;99.90
4435;DHT22;46552;52.150;8.428;2024-01-25T06:35:28;7.50;99.90
4435;DHT22;46552;52.150;8.428;2024-01-25T06:37:56;7.50;99.90
4435;DHT22;46552;52.150;8.428;2024-01-25T06:40:24;7.50;99.90
4435;DHT22;46552;52.150;8.428;2024-01-25T06:42:52;7.50;99.90
4435;DHT22;46552;52.150;8.428;2024-01-25T06:45:20;7.40;99.90
4435;DHT22;46552;52.150;8.428;2024-01-25T06:47:47;7.40;99.90
4435;DHT22;46552;52.150;8.428;2024-01-25T06:50:14;7.40;99.90
4435;DHT22;46552;52.150;8.428;2024-01-25T06:52:41;7.30;99.90
4435;DHT22;46552;52.150;8.428;2024-01-25T06:55:09;7.30;99.90
4435;DHT22;46552;52.150;8.428;2024-01-25T06:57:38;7.20;99.90
4435;DHT22;46552;52.150;8.428;2024-01-25T07:00:08;7.20;99.90
4435;DHT22;46552;52.150;8.428;2024-01-25T07:02:37;7.10;99.90
4435;DHT22;46552;52.150;8.428;2024-01-25T07:05:04;7.10;99.90
4435;DHT22;46552;52.150;8.428;2024-01-25T07:07:32;7.10;99.90
4435;DHT22;46552;52.150;8.428;2024-01-25T07:09:59;7.00;99.90
4435;DHT22;46552;52.150;8.428;2024-01-25T07:12:27;7.00;99.90
4435;DHT22;46552;52.150;8.428;2024-01-25T07:14:54;7.00;99.90
4435;DHT22;46552;52.150;8.428;2024-01-25T07:17:24;7.00;99.90
4435;DHT22;46552;52.150;8.428;2024-01-25T07:19:51;6.90;99.90
4435;DHT22;46552;52.150;8.428;2024-01-25T07:22:18;6.90;99.90
4435;DHT22;46552;52.150;8.428;2024-01-25T07:24:48;6.90;99.90
4435;DHT22;46552;52.150;8.428;2024-01-25T07:27:15;6.90;99.90
4435;DHT22;46552;52.150;8.428;2024-01-25T07:29:44;6.90;99.90
4435;DHT22;46552;52.150;8.428;2024-01-25T07:32:12;6.90;99.90
4435;DHT22;46552;52.150;8.428;2024-01-25T07:34:41;6.90;99.90
4435;DHT22;46552;52.150;8.428;2024-01-25T07:37:08;6.90;99.90
4435;DHT22;46552;52.150;8.428;2024-01-25T07:39:36;6.90;99.90
4435;DHT22;46552;52.150;8.428;2024-01-25T07:42:04;6.90;99.90
4435;DHT22;46552;52.150;8.428;2024-01-25T07:44:32;6.90;99.90
4435;DHT22;46552;52.150;8.428;2024-01-25T07:47:00;7.00;99.90
4435;DHT22;46552;52.150;8.428;2024-01-25T07:49:28;7.00;99.90
4435;DHT22;46552;52.150;8.428;2024-01-25T07:51:57;7.10;99.90
4435;DHT22;46552;52.150;8.428;2024-01-25T07:54:24;7.20;99.90
4435;DHT22;46552;52.150;8.428;2024-01-25T07:56:51;7.50;99.90
4435;DHT22;46552;52.150;8.428;2024-01-25T07:59:18;7.60;99.90
4435;DHT22;46552;52.150;8.428;2024-01-25T08:01:46;7.60;99.90
4435;DHT22;46552;52.150;8.428;2024-01-25T08:04:14;7.60;99.90
4435;DHT22;46552;52.150;8.428;2024-01-25T08:06:41;7.70;99.90
4435;DHT22;46552;52.150;8.428;2024-01-25T08:09:09;7.90;99.90
4435;DHT22;46552;52.150;8.428;2024-01-25T08:11:37;8.10;99.90
4435;DHT22;46552;52.150;8.428;2024-01-25T08:14:04;8.30;99.90
4435;DHT22;46552;52.150;8.428;2024-01-25T08:16:32;8.50;99.90
4435;DHT22;46552;52.150;8.428;2024-01-25T08:19:01;8.50;99.90
4435;DHT22;46552;52.150;8.428;2024-01-25T08:21:28;8.60;99.90
4435;DHT22;46552;52.150;8.428;2024-01-25T08:23:55;8.60;99.90
4435;DHT22;46552;52.150;8.428;2024-01-25T08:26:24;8.70;99.90
4435;DHT22;46552;52.150;8.428;2024-01-25T08:28:51;8.80;99.90
4435;DHT22;46552;52.150;8.428;2024-01-25T08:31:18;9.10;99.90
4435;DHT22;46552;52.150;8.428;2024-01-25T08:33:46;9.80;99.90
4435;DHT22;46552;52.150;8.428;2024-01-25T08:36:13;10.40;99.90
4435;DHT22;46552;52.150;8.428;2024-01-25T08:38:40;11.00;99.90
4435;DHT22;46552;52.150;8.428;2024-01-25T08:41:08;11.60;99.90
4435;DHT22;46552;52.150;8.428;2024-01-25T08:43:38;11.90;99.90
4435;DHT22;46552;52.150;8.428;2024-01-25T08:46:06;12.70;99.90
4435;DHT22;46552;52.150;8.428;2024-01-25T08:48:34;13.10;99.90
4435;DHT22;46552;52.150;8.428;2024-01-25T08:51:01;13.60;99.90
4435;DHT22;46552;52.150;8.428;2024-01-25T08:53:28;13.70;99.90
4435;DHT22;46552;52.150;8.428;2024-01-25T08:55:55;14.10;99.90
4435;DHT22;46552;52.150;8.428;2024-01-25T08:58:23;14.70;99.90
4435;DHT22;46552;52.150;8.428;2024-01-25T09:00:51;15.10;99.90
4435;DHT22;46552;52.150;8.428;2024-01-25T09:03:18;15.30;99.90
4435;DHT22;46552;52.150;8.428;2024-01-25T09:05:45;15.50;99.90
4435;DHT22;46552;52.150;8.428;2024-01-25T09:08:13;15.80;99.90
4435;DHT22;46552;52.150;8.428;2024-01-25T09:10:41;15.70;99.20
4435;DHT22;46552;52.150;8.428;2024-01-25T09:13:08;15.60;99.60
4435;DHT22;46552;52.150;8.428;2024-01-25T09:15:36;15.50;99.50
4435;DHT22;46552;52.150;8.428;2024-01-25T09:18:05;15.20;99.50
4435;DHT22;46552;52.150;8.428;2024-01-25T09:20:34;14.70;99.10
4435;DHT22;46552;52.150;8.428;2024-01-25T09:23:01;14.30;99.90
4435;DHT22;46552;52.150;8.428;2024-01-25T09:25:28;14.20;99.90
4435;DHT22;46552;52.150;8.428;2024-01-25T09:27:56;14.20;99.90
4435;DHT22;46552;52.150;8.428;2024-01-25T09:30:23;14.40;99.90
4435;DHT22;46552;52.150;8.428;2024-01-25T09:32:51;14.00;99.90
4435;DHT22;46552;52.150;8.428;2024-01-25T09:35:19;13.40;99.90
4435;DHT22;46552;52.150;8.428;2024-01-25T09:37:46;12.90;99.90
4435;DHT22;46552;52.150;8.428;2024-01-25T09:40:14;12.60;99.90
4435;DHT22;46552;52.150;8.428;2024-01-25T09:42:42;12.60;99.90
4435;DHT22;46552;52.150;8.428;2024-01-25T09:45:11;12.70;99.90
4435;DHT22;46552;52.150;8.428;2024-01-25T09:47:42;12.70;99.90
4435;DHT22;46552;52.150;8.428;2024-01-25T09:50:10;12.50;99.90
4435;DHT22;46552;52.150;8.428;2024-01-25T09:52:40;12.10;99.90
4435;DHT22;46552;52.150;8.428;2024-01-25T09:55:11;11.70;99.90
4435;DHT22;46552;52.150;8.428;2024-01-25T09:57:41;11.50;99.90
4435;DHT22;46552;52.150;8.428;2024-01-25T10:00:13;11.00;99.90
4435;DHT22;46552;52.150;8.428;2024-01-25T10:02:41;10.80;99.90
4435;DHT22;46552;52.150;8.428;2024-01-25T10:05:08;10.60;99.90
4435;DHT22;46552;52.150;8.428;2024-01-25T10:07:37;10.30;99.90
4435;DHT22;46552;52.150;8.428;2024-01-25T10:10:05;10.00;99.90
4435;DHT22;46552;52.150;8.428;2024-01-25T10:12:33;9.90;99.90
4435;DHT22;46552;52.150;8.428;2024-01-25T10:15:00;9.60;99.90
4435;DHT22;46552;52.150;8.428;2024-01-25T10:17:28;9.50;99.90
4435;DHT22;46552;52.150;8.428;2024-01-25T10:19:55;9.40;99.90
4435;DHT22;46552;52.150;8.428;2024-01-25T10:22:22;9.30;99.90
4435;DHT22;46552;52.150;8.428;2024-01-25T10:24:51;9.30;99.90
4435;DHT22;46552;52.150;8.428;2024-01-25T10:27:21;9.40;99.90
4435;DHT22;46552;52.150;8.428;2024-01-25T10:29:49;9.20;99.90
4435;DHT22;46552;52.150;8.428;2024-01-25T10:32:16;9.30;99.90
4435;DHT22;46552;52.150;8.428;2024-01-25T10:34:45;9.30;99.90
4435;DHT22;46552;52.150;8.428;2024-01-25T10:37:14;9.50;99.90
4435;DHT22;46552;52.150;8.428;2024-01-25T10:39:44;9.60;99.90
4435;DHT22;46552;52.150;8.428;2024-01-25T10:42:11;9.80;99.90
4435;DHT22;46552;52.150;8.428;2024-01-25T10:44:40;9.90;99.90
4435;DHT22;46552;52.150;8.428;2024-01-25T10:47:08;10.30;99.90
4435;DHT22;46552;52.150;8.428;2024-01-25T10:49:36;11.00;99.90
4435;DHT22;46552;52.150;8.428;2024-01-25T10:52:05;11.40;99.90
4435;DHT22;46552;52.150;8.428;2024-01-25T10:54:33;11.60;99.90
4435;DHT22;46552;52.150;8.428;2024-01-25T10:57:01;11.90;99.90
4435;DHT22;46552;52.150;8.428;2024-01-25T10:59:32;12.00;99.90
4435;DHT22;46552;52.150;8.428;2024-01-25T11:02:03;12.40;99.90
4435;DHT22;46552;52.150;8.428;2024-01-25T11:04:30;12.50;99.90
4435;DHT22;46552;52.150;8.428;2024-01-25T11:07:06;12.30;99.90
4435;DHT22;46552;52.150;8.428;2024-01-25T11:09:35;12.10;99.90
4435;DHT22;46552;52.150;8.428;2024-01-25T11:12:11;11.90;99.90
4435;DHT22;46552;52.150;8.428;2024-01-25T11:14:39;11.70;99.90
4435;DHT22;46552;52.150;8.428;2024-01-25T11:17:18;11.40;99.90
4435;DHT22;46552;52.150;8.428;2024-01-25T11:19:48;11.30;99.90
4435;DHT22;46552;52.150;8.428;2024-01-25T11:22:15;11.30;99.90
4435;DHT22;46552;52.150;8.428;2024-01-25T11:24:44;11.30;99.90
4435;DHT22;46552;52.150;8.428;2024-01-25T11:27:14;11.20;99.90
4435;DHT22;46552;52.150;8.428;2024-01-25T11:29:41;11.70;99.90
4435;DHT22;46552;52.150;8.428;2024-01-25T11:32:09;12.00;99.90
4435;DHT22;46552;52.150;8.428;2024-01-25T11:34:38;12.30;99.90
4435;DHT22;46552;52.150;8.428;2024-01-25T11:37:05;12.30;99.90
4435;DHT22;46552;52.150;8.428;2024-01-25T11:39:33;12.60;99.90
4435;DHT22;46552;52.150;8.428;2024-01-25T11:42:00;13.10;99.90
4435;DHT22;46552;52.150;8.428;2024-01-25T11:44:27;13.50;99.90
4435;DHT22;46552;52.150;8.428;2024-01-25T11:46:55;13.60;99.90
4435;DHT22;46552;52.150;8.428;2024-01-25T11:49:24;13.60;99.90
4435;DHT22;46552;52.150;8.428;2024-01-25T11:51:53;13.80;99.90
4435;DHT22;46552;52.150;8.428;2024-01-25T11:54:20;13.80;99.90
4435;DHT22;46552;52.150;8.428;2024-01-25T11:56:48;14.00;99.90
4435;DHT22;46552;52.150;8.428;2024-01-25T11:59:16;14.10;99.90
4435;DHT22;46552;52.150;8.428;2024-01-25T12:01:43;14.50;99.90
4435;DHT22;46552;52.150;8.428;2024-01-25T12:04:10;14.90;99.90
4435;DHT22;46552;52.150;8.428;2024-01-25T12:06:38;15.20;99.90
4435;DHT22;46552;52.150;8.428;2024-01-25T12:09:10;15.30;99.90
4435;DHT22;46552;52.150;8.428;2024-01-25T12:11:39;15.40;99.90
4435;DHT22;46552;52.150;8.428;2024-01-25T12:14:07;15.60;99.90
4435;DHT22;46552;52.150;8.428;2024-01-25T12:16:34;15.60;99.90
4435;DHT22;46552;52.150;8.428;2024-01-25T12:19:01;15.40;99.90
4435;DHT22;46552;52.150;8.428;2024-01-25T12:21:32;15.20;99.90
4435;DHT22;46552;52.150;8.428;2024-01-25T12:23:59;15.10;99.90
4435;DHT22;46552;52.150;8.428;2024-01-25T12:26:33;14.90;99.80
4435;DHT22;46552;52.150;8.428;2024-01-25T12:29:00;14.50;99.90
4435;DHT22;46552;52.150;8.428;2024-01-25T12:31:28;14.30;99.90
4435;DHT22;46552;52.150;8.428;2024-01-25T12:33:56;14.30;99.90
4435;DHT22;46552;52.150;8.428;2024-01-25T12:36:23;14.30;99.90
4435;DHT22;46552;52.150;8.428;2024-01-25T12:38:50;14.40;99.90
4435;DHT22;46552;52.150;8.428;2024-01-25T12:41:18;14.30;99.90
4435;DHT22;46552;52.150;8.428;2024-01-25T12:43:46;14.10;99.90
4435;DHT22;46552;52.150;8.428;2024-01-25T12:46:13;14.00;99.90
4435;DHT22;46552;52.150;8.428;2024-01-25T12:48:40;13.80;99.90
4435;DHT22;46552;52.150;8.428;2024-01-25T12:51:08;13.70;99.90
4435;DHT22;46552;52.150;8.428;2024-01-25T12:53:35;13.50;99.90
4435;DHT22;46552;52.150;8.428;2024-01-25T12:56:04;13.20;99.90
4435;DHT22;46552;52.150;8.428;2024-01-25T12:58:31;13.10;99.90
4435;DHT22;46552;52.150;8.428;2024-01-25T13:00:59;13.00;99.90
4435;DHT22;46552;52.150;8.428;2024-01-25T13:03:27;12.90;99.90
4435;DHT22;46552;52.150;8.428;2024-01-25T13:05:55;12.70;99.90
4435;DHT22;46552;52.150;8.428;2024-01-25T13:08:22;12.70;99.90
4435;DHT22;46552;52.150;8.428;2024-01-25T13:10:50;12.80;99.90
4435;DHT22;46552;52.150;8.428;2024-01-25T13:13:18;12.90;99.90
4435;DHT22;46552;52.150;8.428;2024-01-25T13:15:46;12.80;99.90
4435;DHT22;46552;52.150;8.428;2024-01-25T13:18:16;12.70;99.90
4435;DHT22;46552;52.150;8.428;2024-01-25T13:20:43;12.60;99.90
4435;DHT22;46552;52.150;8.428;2024-01-25T13:23:10;12.20;99.90
4435;DHT22;46552;52.150;8.428;2024-01-25T13:25:38;12.10;99.90
4435;DHT22;46552;52.150;8.428;2024-01-25T13:28:07;11.80;99.90
4435;DHT22;46552;52.150;8.428;2024-01-25T13:30:34;11.70;99.90
4435;DHT22;46552;52.150;8.428;2024-01-25T13:33:01;11.60;99.90
4435;DHT22;46552;52.150;8.428;2024-01-25T13:35:42;11.40;99.90
4435;DHT22;46552;52.150;8.428;2024-01-25T13:38:09;11.20;99.90
4435;DHT22;46552;52.150;8.428;2024-01-25T13:40:40;11.10;99.90
4435;DHT22;46552;52.150;8.428;2024-01-25T13:43:07;10.90;99.90
4435;DHT22;46552;52.150;8.428;2024-01-25T13:45:34;10.90;99.90
4435;DHT22;46552;52.150;8.428;2024-01-25T13:48:02;10.80;99.90
4435;DHT22;46552;52.150;8.428;2024-01-25T13:50:29;10.80;99.90
4435;DHT22;46552;52.150;8.428;2024-01-25T13:52:58;10.90;99.90
4435;DHT22;46552;52.150;8.428;2024-01-25T13:55:25;10.90;99.90
4435;DHT22;46552;52.150;8.428;2024-01-25T13:57:52;11.00;99.90
4435;DHT22;46552;52.150;8.428;2024-01-25T14:00:20;11.00;99.90
4435;DHT22;46552;52.150;8.428;2024-01-25T14:02:48;11.00;99.90
4435;DHT22;46552;52.150;8.428;2024-01-25T14:05:15;10.90;99.90
4435;DHT22;46552;52.150;8.428;2024-01-25T14:07:42;10.90;99.90
4435;DHT22;46552;52.150;8.428;2024-01-25T14:10:11;10.90;99.90
4435;DHT22;46552;52.150;8.428;2024-01-25T14:12:38;10.90;99.90
4435;DHT22;46552;52.150;8.428;2024-01-25T14:15:07;10.80;99.90
4435;DHT22;46552;52.150;8.428;2024-01-25T14:17:34;10.90;99.90
4435;DHT22;46552;52.150;8.428;2024-01-25T14:20:02;10.90;99.90
4435;DHT22;46552;52.150;8.428;2024-01-25T14:22:30;10.90;99.90
4435;DHT22;46552;52.150;8.428;2024-01-25T14:24:58;10.80;99.90
4435;DHT22;46552;52.150;8.428;2024-01-25T14:27:27;10.80;99.90
4435;DHT22;46552;52.150;8.428;2024-01-25T14:29:55;10.70;99.90
4435;DHT22;46552;52.150;8.428;2024-01-25T14:32:22;10.70;99.90
4435;DHT22;46552;52.150;8.428;2024-01-25T14:34:49;10.70;99.90
4435;DHT22;46552;52.150;8.428;2024-01-25T14:37:17;10.60;99.90
4435;DHT22;46552;52.150;8.428;2024-01-25T14:39:44;10.60;99.90
4435;DHT22;46552;52.150;8.428;2024-01-25T14:42:11;10.50;99.90
4435;DHT22;46552;52.150;8.428;2024-01-25T14:44:43;10.50;99.90
4435;DHT22;46552;52.150;8.428;2024-01-25T14:47:10;10.40;99.90
4435;DHT22;46552;52.150;8.428;2024-01-25T14:49:37;10.30;99.90
4435;DHT22;46552;52.150;8.428;2024-01-25T14:52:05;10.20;99.90
4435;DHT22;46552;52.150;8.428;2024-01-25T14:54:32;10.10;99.90
4435;DHT22;46552;52.150;8.428;2024-01-25T14:56:59;10.00;99.90
4435;DHT22;46552;52.150;8.428;2024-01-25T14:59:26;10.00;99.90
4435;DHT22;46552;52.150;8.428;2024-01-25T15:01:55;9.90;99.90
4435;DHT22;46552;52.150;8.428;2024-01-25T15:04:22;9.90;99.90
4435;DHT22;46552;52.150;8.428;2024-01-25T15:06:55;9.80;99.90
4435;DHT22;46552;52.150;8.428;2024-01-25T15:09:22;9.80;99.90
4435;DHT22;46552;52.150;8.428;2024-01-25T15:11:49;9.70;99.90
4435;DHT22;46552;52.150;8.428;2024-01-25T15:14:17;9.70;99.90
4435;DHT22;46552;52.150;8.428;2024-01-25T15:16:44;9.60;99.90
4435;DHT22;46552;52.150;8.428;2024-01-25T15:19:15;9.50;99.90
4435;DHT22;46552;52.150;8.428;2024-01-25T15:21:42;9.50;99.90
4435;DHT22;46552;52.150;8.428;2024-01-25T15:24:10;9.40;99.90
4435;DHT22;46552;52.150;8.428;2024-01-25T15:26:39;9.40;99.90
4435;DHT22;46552;52.150;8.428;2024-01-25T15:29:07;9.40;99.90
4435;DHT22;46552;52.150;8.428;2024-01-25T15:31:34;9.30;99.90
4435;DHT22;46552;52.150;8.428;2024-01-25T15:34:01;9.30;99.90
4435;DHT22;46552;52.150;8.428;2024-01-25T15:36:30;9.20;99.90
4435;DHT22;46552;52.150;8.428;2024-01-25T15:38:58;9.10;99.90
4435;DHT22;46552;52.150;8.428;2024-01-25T15:41:25;9.10;99.90
4435;DHT22;46552;52.150;8.428;2024-01-25T15:43:55;9.10;99.90
4435;DHT22;46552;52.150;8.428;2024-01-25T15:46:22;9.00;99.90
4435;DHT22;46552;52.150;8.428;2024-01-25T15:48:49;9.00;99.90
4435;DHT22;46552;52.150;8.428;2024-01-25T15:51:20;8.90;99.90
4435;DHT22;46552;52.150;8.428;2024-01-25T15:53:48;8.90;99.90
4435;DHT22;46552;52.150;8.428;2024-01-25T15:56:16;8.80;99.90
4435;DHT22;46552;52.150;8.428;2024-01-25T15:58:43;8.80;99.90